sensor_id;sensor_type;location;lat;lon;timestamp;pressure;altitude;pressure_sealevel;temperature;humidity
54453;BME280;40363;52.270;10.546;2023-02-12T00:01:23;78586.31;;;-147.06;100.00
54453;BME280;40363;52.270;10.546;2023-02-12T00:03:52;78580.16;;;-147.06;100.00
54453;BME280;40363;52.270;10.546;2023-02-12T00:06:19;78588.38;;;-147.06;100.00
54453;BME280;40363;52.270;10.546;2023-02-12T00:08:48;78598.66;;;-147.06;100.00
54453;BME280;40363;52.270;10.546;2023-02-12T00:11:17;78586.31;;;-147.06;100.00
54453;BME280;40363;52.270;10.546;2023-02-12T00:13:44;78590.44;;;-147.06;100.00
54453;BME280;40363;52.270;10.546;2023-02-12T00:16:13;78596.59;;;-147.06;100.00
54453;BME280;40363;52.270;10.546;2023-02-12T00:18:40;78586.31;;;-147.06;100.00
54453;BME280;40363;52.270;10.546;2023-02-12T00:21:08;78594.56;;;-147.06;100.00
54453;BME280;40363;52.270;10.546;2023-02-12T00:23:35;78594.56;;;-147.06;100.00
54453;BME280;40363;52.270;10.546;2023-02-12T00:26:04;78598.66;;;-147.06;100.00
54453;BME280;40363;52.270;10.546;2023-02-12T00:28:31;78596.59;;;-147.06;100.00
54453;BME280;40363;52.270;10.546;2023-02-12T00:31:03;78602.78;;;-147.06;100.00
54453;BME280;40363;52.270;10.546;2023-02-12T00:33:30;78598.66;;;-147.06;100.00
54453;BME280;40363;52.270;10.546;2023-02-12T00:35:56;78594.56;;;-147.06;100.00
54453;BME280;40363;52.270;10.546;2023-02-12T00:38:25;78594.56;;;-147.06;100.00
54453;BME280;40363;52.270;10.546;2023-02-12T00:40:51;78598.66;;;-147.06;100.00
54453;BME280;40363;52.270;10.546;2023-02-12T00:43:18;78602.78;;;-147.06;100.00
54453;BME280;40363;52.270;10.546;2023-02-12T00:45:45;78604.84;;;-147.06;100.00
54453;BME280;40363;52.270;10.546;2023-02-12T00:48:11;78602.78;;;-147.06;100.00
54453;BME280;40363;52.270;10.546;2023-02-12T00:50:38;78615.13;;;-147.06;100.00
54453;BME280;40363;52.270;10.546;2023-02-12T00:53:06;78604.84;;;-147.06;100.00
54453;BME280;40363;52.270;10.546;2023-02-12T00:55:34;78606.88;;;-147.06;100.00
54453;BME280;40363;52.270;10.546;2023-02-12T00:58:01;78617.16;;;-147.06;100.00
54453;BME280;40363;52.270;10.546;2023-02-12T01:00:27;78611.00;;;-147.06;100.00
54453;BME280;40363;52.270;10.546;2023-02-12T01:02:54;78617.16;;;-147.06;100.00
54453;BME280;40363;52.270;10.546;2023-02-12T01:05:20;78613.06;;;-147.06;100.00
54453;BME280;40363;52.270;10.546;2023-02-12T01:07:48;78625.41;;;-147.06;100.00
54453;BME280;40363;52.270;10.546;2023-02-12T01:10:16;78623.34;;;-147.06;100.00
54453;BME280;40363;52.270;10.546;2023-02-12T01:12:44;78625.41;;;-147.06;100.00
54453;BME280;40363;52.270;10.546;2023-02-12T01:15:11;78627.44;;;-147.06;100.00
54453;BME280;40363;52.270;10.546;2023-02-12T01:17:38;78629.50;;;-147.06;100.00
54453;BME280;40363;52.270;10.546;2023-02-12T01:20:06;78635.69;;;-147.06;100.00
54453;BME280;40363;52.270;10.546;2023-02-12T01:22:33;78635.69;;;-147.06;100.00
54453;BME280;40363;52.270;10.546;2023-02-12T01:24:59;78631.56;;;-147.06;100.00
54453;BME280;40363;52.270;10.546;2023-02-12T01:27:26;78631.56;;;-147.06;100.00
54453;BME280;40363;52.270;10.546;2023-02-12T01:29:54;78631.56;;;-147.06;100.00
54453;BME280;40363;52.270;10.546;2023-02-12T01:32:21;78631.56;;;-147.06;100.00
54453;BME280;40363;52.270;10.546;2023-02-12T01:34:47;78627.44;;;-147.06;100.00
54453;BME280;40363;52.270;10.546;2023-02-12T01:37:14;78623.34;;;-147.06;100.00
54453;BME280;40363;52.270;10.546;2023-02-12T01:39:41;78623.34;;;-147.06;100.00
54453;BME280;40363;52.270;10.546;2023-02-12T01:42:11;78619.22;;;-147.06;100.00
54453;BME280;40363;52.270;10.546;2023-02-12T01:44:42;78623.34;;;-147.06;100.00
54453;BME280;40363;52.270;10.546;2023-02-12T01:47:15;78633.63;;;-147.06;100.00
54453;BME280;40363;52.270;10.546;2023-02-12T01:49:45;78631.56;;;-147.06;100.00
54453;BME280;40363;52.270;10.546;2023-02-12T01:52:16;78615.13;;;-147.06;100.00
54453;BME280;40363;52.270;10.546;2023-02-12T01:54:45;78623.34;;;-147.06;100.00
54453;BME280;40363;52.270;10.546;2023-02-12T01:57:13;78619.22;;;-147.06;100.00
54453;BME280;40363;52.270;10.546;2023-02-12T01:59:42;78621.28;;;-147.06;100.00
54453;BME280;40363;52.270;10.546;2023-02-12T02:02:12;78619.22;;;-147.06;100.00
54453;BME280;40363;52.270;10.546;2023-02-12T02:04:42;78627.44;;;-147.06;100.00
54453;BME280;40363;52.270;10.546;2023-02-12T02:07:11;78619.22;;;-147.06;100.00
54453;BME280;40363;52.270;10.546;2023-02-12T02:09:38;78619.22;;;-147.06;100.00
54453;BME280;40363;52.270;10.546;2023-02-12T02:12:06;78625.41;;;-147.06;100.00
54453;BME280;40363;52.270;10.546;2023-02-12T02:14:53;78623.34;;;-147.06;100.00
54453;BME280;40363;52.270;10.546;2023-02-12T02:17:39;78623.34;;;-147.06;100.00
54453;BME280;40363;52.270;10.546;2023-02-12T02:23:21;78629.50;;;-147.06;100.00
54453;BME280;40363;52.270;10.546;2023-02-12T02:26:21;78625.41;;;-147.06;100.00
54453;BME280;40363;52.270;10.546;2023-02-12T02:29:13;78619.22;;;-147.06;100.00
54453;BME280;40363;52.270;10.546;2023-02-12T02:31:48;78627.44;;;-147.06;100.00
54453;BME280;40363;52.270;10.546;2023-02-12T02:34:20;78627.44;;;-147.06;100.00
54453;BME280;40363;52.270;10.546;2023-02-12T02:36:54;78631.56;;;-147.06;100.00
54453;BME280;40363;52.270;10.546;2023-02-12T02:39:42;78625.41;;;-147.06;100.00
54453;BME280;40363;52.270;10.546;2023-02-12T02:42:23;78629.50;;;-147.06;100.00
54453;BME280;40363;52.270;10.546;2023-02-12T02:44:54;78631.56;;;-147.06;100.00
54453;BME280;40363;52.270;10.546;2023-02-12T02:47:29;78635.69;;;-147.06;100.00
54453;BME280;40363;52.270;10.546;2023-02-12T02:50:01;78639.78;;;-147.06;100.00
54453;BME280;40363;52.270;10.546;2023-02-12T02:52:34;78641.84;;;-147.06;100.00
54453;BME280;40363;52.270;10.546;2023-02-12T02:55:06;78639.78;;;-147.06;100.00
54453;BME280;40363;52.270;10.546;2023-02-12T02:57:36;78643.91;;;-147.06;100.00
54453;BME280;40363;52.270;10.546;2023-02-12T03:00:10;78641.84;;;-147.06;100.00
54453;BME280;40363;52.270;10.546;2023-02-12T03:02:43;78652.13;;;-147.06;100.00
54453;BME280;40363;52.270;10.546;2023-02-12T03:05:17;78650.06;;;-147.06;100.00
54453;BME280;40363;52.270;10.546;2023-02-12T03:07:47;78650.06;;;-147.06;100.00
54453;BME280;40363;52.270;10.546;2023-02-12T03:10:19;78650.06;;;-147.06;100.00
54453;BME280;40363;52.270;10.546;2023-02-12T03:12:50;78650.06;;;-147.06;100.00
54453;BME280;40363;52.270;10.546;2023-02-12T03:15:21;78648.00;;;-147.06;100.00
54453;BME280;40363;52.270;10.546;2023-02-12T03:17:51;78656.25;;;-147.06;100.00
54453;BME280;40363;52.270;10.546;2023-02-12T03:20:19;78654.19;;;-147.06;100.00
54453;BME280;40363;52.270;10.546;2023-02-12T03:22:50;78656.25;;;-147.06;100.00
54453;BME280;40363;52.270;10.546;2023-02-12T03:25:22;78662.41;;;-147.06;100.00
54453;BME280;40363;52.270;10.546;2023-02-12T03:27:57;78672.69;;;-147.06;100.00
54453;BME280;40363;52.270;10.546;2023-02-12T03:30:30;78660.34;;;-147.06;100.00
54453;BME280;40363;52.270;10.546;2023-02-12T03:33:13;78664.47;;;-147.06;100.00
54453;BME280;40363;52.270;10.546;2023-02-12T03:35:51;78664.47;;;-147.06;100.00
54453;BME280;40363;52.270;10.546;2023-02-12T03:38:27;78676.81;;;-147.06;100.00
54453;BME280;40363;52.270;10.546;2023-02-12T03:41:00;78672.69;;;-147.06;100.00
54453;BME280;40363;52.270;10.546;2023-02-12T03:43:31;78672.69;;;-147.06;100.00
54453;BME280;40363;52.270;10.546;2023-02-12T03:46:02;78672.69;;;-147.06;100.00
54453;BME280;40363;52.270;10.546;2023-02-12T03:48:40;78676.81;;;-147.06;100.00
54453;BME280;40363;52.270;10.546;2023-02-12T03:51:16;78678.88;;;-147.06;100.00
54453;BME280;40363;52.270;10.546;2023-02-12T03:53:46;78682.97;;;-147.06;100.00
54453;BME280;40363;52.270;10.546;2023-02-12T03:56:17;78687.09;;;-147.06;100.00
54453;BME280;40363;52.270;10.546;2023-02-12T03:58:45;78687.09;;;-147.06;100.00
54453;BME280;40363;52.270;10.546;2023-02-12T04:01:12;78680.91;;;-147.06;100.00
54453;BME280;40363;52.270;10.546;2023-02-12T04:03:41;78680.91;;;-147.06;100.00
54453;BME280;40363;52.270;10.546;2023-02-12T04:06:18;78682.97;;;-147.06;100.00
54453;BME280;40363;52.270;10.546;2023-02-12T04:08:45;78691.19;;;-147.06;100.00
54453;BME280;40363;52.270;10.546;2023-02-12T04:11:19;78682.97;;;-147.06;100.00
54453;BME280;40363;52.270;10.546;2023-02-12T04:13:50;78691.19;;;-147.06;100.00
54453;BME280;40363;52.270;10.546;2023-02-12T04:16:22;78685.03;;;-147.06;100.00
54453;BME280;40363;52.270;10.546;2023-02-12T04:18:52;78691.19;;;-147.06;100.00
54453;BME280;40363;52.270;10.546;2023-02-12T04:21:31;78687.09;;;-147.06;100.00
54453;BME280;40363;52.270;10.546;2023-02-12T04:24:06;78701.50;;;-147.06;100.00
54453;BME280;40363;52.270;10.546;2023-02-12T04:26:41;78707.66;;;-147.06;100.00
54453;BME280;40363;52.270;10.546;2023-02-12T04:29:17;78709.72;;;-147.06;100.00
54453;BME280;40363;52.270;10.546;2023-02-12T04:31:50;78711.78;;;-147.06;100.00
54453;BME280;40363;52.270;10.546;2023-02-12T04:34:26;78717.94;;;-147.06;100.00
54453;BME280;40363;52.270;10.546;2023-02-12T04:36:58;78715.88;;;-147.06;100.00
54453;BME280;40363;52.270;10.546;2023-02-12T04:39:29;78717.94;;;-147.06;100.00
54453;BME280;40363;52.270;10.546;2023-02-12T04:41:57;78726.16;;;-147.06;100.00
54453;BME280;40363;52.270;10.546;2023-02-12T04:44:26;78717.94;;;-147.06;100.00
54453;BME280;40363;52.270;10.546;2023-02-12T04:46:53;78724.09;;;-147.06;100.00
54453;BME280;40363;52.270;10.546;2023-02-12T04:49:22;78726.16;;;-147.06;100.00
54453;BME280;40363;52.270;10.546;2023-02-12T04:51:49;78730.28;;;-147.06;100.00
54453;BME280;40363;52.270;10.546;2023-02-12T04:54:18;78734.38;;;-147.06;100.00
54453;BME280;40363;52.270;10.546;2023-02-12T04:56:45;78742.63;;;-147.06;100.00
54453;BME280;40363;52.270;10.546;2023-02-12T04:59:13;78732.34;;;-147.06;100.00
54453;BME280;40363;52.270;10.546;2023-02-12T05:01:40;78738.50;;;-147.06;100.00
54453;BME280;40363;52.270;10.546;2023-02-12T05:04:07;78744.66;;;-147.06;100.00
54453;BME280;40363;52.270;10.546;2023-02-12T05:06:36;78724.09;;;-147.06;100.00
54453;BME280;40363;52.270;10.546;2023-02-12T05:09:04;78732.34;;;-147.06;100.00
54453;BME280;40363;52.270;10.546;2023-02-12T05:11:31;78732.34;;;-147.06;100.00
54453;BME280;40363;52.270;10.546;2023-02-12T05:13:58;78724.09;;;-147.06;100.00
54453;BME280;40363;52.270;10.546;2023-02-12T05:16:25;78730.28;;;-147.06;100.00
54453;BME280;40363;52.270;10.546;2023-02-12T05:18:51;78730.28;;;-147.06;100.00
54453;BME280;40363;52.270;10.546;2023-02-12T05:21:18;78732.34;;;-147.06;100.00
54453;BME280;40363;52.270;10.546;2023-02-12T05:23:46;78740.56;;;-147.06;100.00
54453;BME280;40363;52.270;10.546;2023-02-12T05:26:14;78746.72;;;-147.06;100.00
54453;BME280;40363;52.270;10.546;2023-02-12T05:28:41;78740.56;;;-147.06;100.00
54453;BME280;40363;52.270;10.546;2023-02-12T05:31:10;78742.63;;;-147.06;100.00
54453;BME280;40363;52.270;10.546;2023-02-12T05:33:37;78748.78;;;-147.06;100.00
54453;BME280;40363;52.270;10.546;2023-02-12T05:36:05;78752.91;;;-147.06;100.00
54453;BME280;40363;52.270;10.546;2023-02-12T05:38:32;78748.78;;;-147.06;100.00
54453;BME280;40363;52.270;10.546;2023-02-12T05:41:06;78754.97;;;-147.06;100.00
54453;BME280;40363;52.270;10.546;2023-02-12T05:43:32;78769.34;;;-147.06;100.00
54453;BME280;40363;52.270;10.546;2023-02-12T05:46:00;78761.13;;;-147.06;100.00
54453;BME280;40363;52.270;10.546;2023-02-12T05:48:30;78754.97;;;-147.06;100.00
54453;BME280;40363;52.270;10.546;2023-02-12T05:51:01;78769.34;;;-147.06;100.00
54453;BME280;40363;52.270;10.546;2023-02-12T05:53:28;78771.41;;;-147.06;100.00
54453;BME280;40363;52.270;10.546;2023-02-12T05:56:07;78765.25;;;-147.06;100.00
54453;BME280;40363;52.270;10.546;2023-02-12T05:58:34;78771.41;;;-147.06;100.00
54453;BME280;40363;52.270;10.546;2023-02-12T06:01:00;78767.28;;;-147.06;100.00
54453;BME280;40363;52.270;10.546;2023-02-12T06:03:27;78771.41;;;-147.06;100.00
54453;BME280;40363;52.270;10.546;2023-02-12T06:05:54;78771.41;;;-147.06;100.00
54453;BME280;40363;52.270;10.546;2023-02-12T06:08:23;78767.28;;;-147.06;100.00
54453;BME280;40363;52.270;10.546;2023-02-12T06:10:59;78767.28;;;-147.06;100.00
54453;BME280;40363;52.270;10.546;2023-02-12T06:13:28;78769.34;;;-147.06;100.00
54453;BME280;40363;52.270;10.546;2023-02-12T06:15:54;78775.53;;;-147.06;100.00
54453;BME280;40363;52.270;10.546;2023-02-12T06:18:21;78777.56;;;-147.06;100.00
54453;BME280;40363;52.270;10.546;2023-02-12T06:20:47;78771.41;;;-147.06;100.00
54453;BME280;40363;52.270;10.546;2023-02-12T06:23:14;78779.63;;;-147.06;100.00
54453;BME280;40363;52.270;10.546;2023-02-12T06:25:41;78773.47;;;-147.06;100.00
54453;BME280;40363;52.270;10.546;2023-02-12T06:28:07;78769.34;;;-147.06;100.00
54453;BME280;40363;52.270;10.546;2023-02-12T06:30:35;78771.41;;;-147.06;100.00
54453;BME280;40363;52.270;10.546;2023-02-12T06:33:02;78773.47;;;-147.06;100.00
54453;BME280;40363;52.270;10.546;2023-02-12T06:35:29;78767.28;;;-147.06;100.00
54453;BME280;40363;52.270;10.546;2023-02-12T06:37:56;78773.47;;;-147.06;100.00
54453;BME280;40363;52.270;10.546;2023-02-12T06:40:23;78771.41;;;-147.06;100.00
54453;BME280;40363;52.270;10.546;2023-02-12T06:42:49;78767.28;;;-147.06;100.00
54453;BME280;40363;52.270;10.546;2023-02-12T06:45:16;78765.25;;;-147.06;100.00
54453;BME280;40363;52.270;10.546;2023-02-12T06:47:44;78769.34;;;-147.06;100.00
54453;BME280;40363;52.270;10.546;2023-02-12T06:50:11;78763.19;;;-147.06;100.00
54453;BME280;40363;52.270;10.546;2023-02-12T06:52:37;78773.47;;;-147.06;100.00
54453;BME280;40363;52.270;10.546;2023-02-12T06:55:04;78771.41;;;-147.06;100.00
54453;BME280;40363;52.270;10.546;2023-02-12T06:57:31;78783.75;;;-147.06;100.00
54453;BME280;40363;52.270;10.546;2023-02-12T06:59:57;78783.75;;;-147.06;100.00
54453;BME280;40363;52.270;10.546;2023-02-12T07:02:24;78771.41;;;-147.06;100.00
54453;BME280;40363;52.270;10.546;2023-02-12T07:04:52;78775.53;;;-147.06;100.00
54453;BME280;40363;52.270;10.546;2023-02-12T07:07:19;78779.63;;;-147.06;100.00
54453;BME280;40363;52.270;10.546;2023-02-12T07:09:45;78775.53;;;-147.06;100.00
54453;BME280;40363;52.270;10.546;2023-02-12T07:12:12;78771.41;;;-147.06;100.00
54453;BME280;40363;52.270;10.546;2023-02-12T07:14:38;78769.34;;;-147.06;100.00
54453;BME280;40363;52.270;10.546;2023-02-12T07:17:05;78779.63;;;-147.06;100.00
54453;BME280;40363;52.270;10.546;2023-02-12T07:19:33;78777.56;;;-147.06;100.00
54453;BME280;40363;52.270;10.546;2023-02-12T07:22:01;78779.63;;;-147.06;100.00
54453;BME280;40363;52.270;10.546;2023-02-12T07:24:28;78775.53;;;-147.06;100.00
54453;BME280;40363;52.270;10.546;2023-02-12T07:26:55;78769.34;;;-147.06;100.00
54453;BME280;40363;52.270;10.546;2023-02-12T07:29:22;78777.56;;;-147.06;100.00
54453;BME280;40363;52.270;10.546;2023-02-12T07:31:48;78771.41;;;-147.06;100.00
54453;BME280;40363;52.270;10.546;2023-02-12T07:34:15;78783.75;;;-147.06;100.00
54453;BME280;40363;52.270;10.546;2023-02-12T07:36:41;78789.91;;;-147.06;100.00
54453;BME280;40363;52.270;10.546;2023-02-12T07:39:10;78791.97;;;-147.06;100.00
54453;BME280;40363;52.270;10.546;2023-02-12T07:41:38;78800.19;;;-147.06;100.00
54453;BME280;40363;52.270;10.546;2023-02-12T07:44:06;78791.97;;;-147.06;100.00
54453;BME280;40363;52.270;10.546;2023-02-12T07:46:36;78800.19;;;-147.06;100.00
54453;BME280;40363;52.270;10.546;2023-02-12T07:49:04;78804.31;;;-147.06;100.00
54453;BME280;40363;52.270;10.546;2023-02-12T07:51:33;78804.31;;;-147.06;100.00
54453;BME280;40363;52.270;10.546;2023-02-12T07:54:00;78794.03;;;-147.06;100.00
54453;BME280;40363;52.270;10.546;2023-02-12T07:56:30;78798.16;;;-147.06;100.00
54453;BME280;40363;52.270;10.546;2023-02-12T07:58:59;78798.16;;;-147.06;100.00
54453;BME280;40363;52.270;10.546;2023-02-12T08:01:27;78789.91;;;-147.06;100.00
54453;BME280;40363;52.270;10.546;2023-02-12T08:03:57;78787.88;;;-147.06;100.00
54453;BME280;40363;52.270;10.546;2023-02-12T08:06:26;78785.81;;;-147.06;100.00
54453;BME280;40363;52.270;10.546;2023-02-12T08:08:56;78783.75;;;-147.06;100.00
54453;BME280;40363;52.270;10.546;2023-02-12T08:11:24;78767.28;;;-147.06;100.00
54453;BME280;40363;52.270;10.546;2023-02-12T08:13:52;78763.19;;;-147.06;100.00
54453;BME280;40363;52.270;10.546;2023-02-12T08:16:21;78771.41;;;-147.06;100.00
54453;BME280;40363;52.270;10.546;2023-02-12T08:18:48;78767.28;;;-147.06;100.00
54453;BME280;40363;52.270;10.546;2023-02-12T08:21:16;78767.28;;;-147.06;100.00
54453;BME280;40363;52.270;10.546;2023-02-12T08:23:44;78763.19;;;-147.06;100.00
54453;BME280;40363;52.270;10.546;2023-02-12T08:26:16;78763.19;;;-147.06;100.00
54453;BME280;40363;52.270;10.546;2023-02-12T08:28:44;78754.97;;;-147.06;100.00
54453;BME280;40363;52.270;10.546;2023-02-12T08:31:15;78752.91;;;-147.06;100.00
54453;BME280;40363;52.270;10.546;2023-02-12T08:33:44;78738.50;;;-147.06;100.00
54453;BME280;40363;52.270;10.546;2023-02-12T08:36:13;78726.16;;;-147.06;100.00
54453;BME280;40363;52.270;10.546;2023-02-12T08:38:41;78730.28;;;-147.06;100.00
54453;BME280;40363;52.270;10.546;2023-02-12T08:41:09;78730.28;;;-147.06;100.00
54453;BME280;40363;52.270;10.546;2023-02-12T08:43:37;78730.28;;;-147.06;100.00
54453;BME280;40363;52.270;10.546;2023-02-12T08:46:06;78730.28;;;-147.06;100.00
54453;BME280;40363;52.270;10.546;2023-02-12T08:48:35;78740.56;;;-147.06;100.00
54453;BME280;40363;52.270;10.546;2023-02-12T08:51:04;78740.56;;;-147.06;100.00
54453;BME280;40363;52.270;10.546;2023-02-12T08:53:31;78750.84;;;-147.06;100.00
54453;BME280;40363;52.270;10.546;2023-02-12T08:55:57;78750.84;;;-147.06;100.00
54453;BME280;40363;52.270;10.546;2023-02-12T08:58:24;78744.66;;;-147.06;100.00
54453;BME280;40363;52.270;10.546;2023-02-12T09:00:51;78738.50;;;-147.06;100.00
54453;BME280;40363;52.270;10.546;2023-02-12T09:03:18;78726.16;;;-147.06;100.00
54453;BME280;40363;52.270;10.546;2023-02-12T09:05:46;78720.00;;;-147.06;100.00
54453;BME280;40363;52.270;10.546;2023-02-12T09:08:12;78726.16;;;-147.06;100.00
54453;BME280;40363;52.270;10.546;2023-02-12T09:10:39;78730.28;;;-147.06;100.00
54453;BME280;40363;52.270;10.546;2023-02-12T09:13:06;78734.38;;;-147.06;100.00
54453;BME280;40363;52.270;10.546;2023-02-12T09:15:35;78732.34;;;-147.06;100.00
54453;BME280;40363;52.270;10.546;2023-02-12T09:18:02;78730.28;;;-147.06;100.00
54453;BME280;40363;52.270;10.546;2023-02-12T09:20:29;78740.56;;;-147.06;100.00
54453;BME280;40363;52.270;10.546;2023-02-12T09:22:58;78732.34;;;-147.06;100.00
54453;BME280;40363;52.270;10.546;2023-02-12T09:25:25;78717.94;;;-147.06;100.00
54453;BME280;40363;52.270;10.546;2023-02-12T09:27:52;78717.94;;;-147.06;100.00
54453;BME280;40363;52.270;10.546;2023-02-12T09:30:18;78717.94;;;-147.06;100.00
54453;BME280;40363;52.270;10.546;2023-02-12T09:32:45;78730.28;;;-147.06;100.00
54453;BME280;40363;52.270;10.546;2023-02-12T09:35:12;78736.44;;;-147.06;100.00
54453;BME280;40363;52.270;10.546;2023-02-12T09:37:38;78730.28;;;-147.06;100.00
54453;BME280;40363;52.270;10.546;2023-02-12T09:40:15;78734.38;;;-147.06;100.00
54453;BME280;40363;52.270;10.546;2023-02-12T09:42:54;78746.72;;;-147.06;100.00
54453;BME280;40363;52.270;10.546;2023-02-12T09:45:27;78759.06;;;-147.06;100.00
54453;BME280;40363;52.270;10.546;2023-02-12T09:48:01;78765.25;;;-147.06;100.00
54453;BME280;40363;52.270;10.546;2023-02-12T09:50:36;78759.06;;;-147.06;100.00
54453;BME280;40363;52.270;10.546;2023-02-12T09:53:10;78744.66;;;-147.06;100.00
54453;BME280;40363;52.270;10.546;2023-02-12T09:55:40;78720.00;;;-147.06;100.00
54453;BME280;40363;52.270;10.546;2023-02-12T09:58:13;78703.53;;;-147.06;100.00
54453;BME280;40363;52.270;10.546;2023-02-12T10:00:40;78703.53;;;-147.06;100.00
54453;BME280;40363;52.270;10.546;2023-02-12T10:03:12;78701.50;;;-147.06;100.00
54453;BME280;40363;52.270;10.546;2023-02-12T10:05:42;78697.38;;;-147.06;100.00
54453;BME280;40363;52.270;10.546;2023-02-12T10:08:32;78691.19;;;-147.06;100.00
54453;BME280;40363;52.270;10.546;2023-02-12T10:11:19;78680.91;;;-147.06;100.00
54453;BME280;40363;52.270;10.546;2023-02-12T10:13:54;78680.91;;;-147.06;100.00
54453;BME280;40363;52.270;10.546;2023-02-12T10:16:35;78701.50;;;-147.06;100.00
54453;BME280;40363;52.270;10.546;2023-02-12T10:19:17;78709.72;;;-147.06;100.00
54453;BME280;40363;52.270;10.546;2023-02-12T10:21:55;78720.00;;;-147.06;100.00
54453;BME280;40363;52.270;10.546;2023-02-12T10:24:41;78703.53;;;-147.06;100.00
54453;BME280;40363;52.270;10.546;2023-02-12T10:27:16;78693.25;;;-147.06;100.00
54453;BME280;40363;52.270;10.546;2023-02-12T10:29:45;78732.34;;;-147.06;100.00
54453;BME280;40363;52.270;10.546;2023-02-12T10:32:20;78724.09;;;-147.06;100.00
54453;BME280;40363;52.270;10.546;2023-02-12T10:34:50;78738.50;;;-147.06;100.00
54453;BME280;40363;52.270;10.546;2023-02-12T10:37:23;78732.34;;;-147.06;100.00
54453;BME280;40363;52.270;10.546;2023-02-12T10:39:55;78722.06;;;-147.06;100.00
54453;BME280;40363;52.270;10.546;2023-02-12T10:42:33;78722.06;;;-147.06;100.00
54453;BME280;40363;52.270;10.546;2023-02-12T10:45:02;78724.09;;;-147.06;100.00
54453;BME280;40363;52.270;10.546;2023-02-12T10:47:28;78726.16;;;-147.06;100.00
54453;BME280;40363;52.270;10.546;2023-02-12T10:49:57;78724.09;;;-147.06;100.00
54453;BME280;40363;52.270;10.546;2023-02-12T10:52:34;78734.38;;;-147.06;100.00
54453;BME280;40363;52.270;10.546;2023-02-12T10:55:22;78722.06;;;-147.06;100.00
54453;BME280;40363;52.270;10.546;2023-02-12T10:57:51;78726.16;;;-147.06;100.00
54453;BME280;40363;52.270;10.546;2023-02-12T11:00:24;78722.06;;;-147.06;100.00
54453;BME280;40363;52.270;10.546;2023-02-12T11:03:17;78726.16;;;-147.06;100.00
54453;BME280;40363;52.270;10.546;2023-02-12T11:05:45;78732.34;;;-147.06;100.00
54453;BME280;40363;52.270;10.546;2023-02-12T11:08:28;78720.00;;;-147.06;100.00
54453;BME280;40363;52.270;10.546;2023-02-12T11:11:03;78717.94;;;-147.06;100.00
54453;BME280;40363;52.270;10.546;2023-02-12T11:13:31;78722.06;;;-147.06;100.00
54453;BME280;40363;52.270;10.546;2023-02-12T11:15:58;78720.00;;;-147.06;100.00
54453;BME280;40363;52.270;10.546;2023-02-12T11:18:27;78699.44;;;-147.06;100.00
54453;BME280;40363;52.270;10.546;2023-02-12T11:20:59;78720.00;;;-147.06;100.00
54453;BME280;40363;52.270;10.546;2023-02-12T11:23:27;78697.38;;;-147.06;100.00
54453;BME280;40363;52.270;10.546;2023-02-12T11:25:57;78701.50;;;-147.06;100.00
54453;BME280;40363;52.270;10.546;2023-02-12T11:28:24;78707.66;;;-147.06;100.00
54453;BME280;40363;52.270;10.546;2023-02-12T11:30:55;78726.16;;;-147.06;100.00
54453;BME280;40363;52.270;10.546;2023-02-12T11:33:25;78720.00;;;-147.06;100.00
54453;BME280;40363;52.270;10.546;2023-02-12T11:35:54;78701.50;;;-147.06;100.00
54453;BME280;40363;52.270;10.546;2023-02-12T11:38:27;78693.25;;;-147.06;100.00
54453;BME280;40363;52.270;10.546;2023-02-12T11:40:59;78680.91;;;-147.06;100.00
54453;BME280;40363;52.270;10.546;2023-02-12T11:43:28;78682.97;;;-147.06;100.00
54453;BME280;40363;52.270;10.546;2023-02-12T11:45:59;78672.69;;;-147.06;100.00
54453;BME280;40363;52.270;10.546;2023-02-12T11:48:29;78670.63;;;-147.06;100.00
54453;BME280;40363;52.270;10.546;2023-02-12T11:50:58;78664.47;;;-147.06;100.00
54453;BME280;40363;52.270;10.546;2023-02-12T11:53:29;78652.13;;;-147.06;100.00
54453;BME280;40363;52.270;10.546;2023-02-12T11:55:59;78658.31;;;-147.06;100.00
54453;BME280;40363;52.270;10.546;2023-02-12T11:58:27;78645.97;;;-147.06;100.00
54453;BME280;40363;52.270;10.546;2023-02-12T12:01:00;78631.56;;;-147.06;100.00
54453;BME280;40363;52.270;10.546;2023-02-12T12:03:33;78623.34;;;-147.06;100.00
54453;BME280;40363;52.270;10.546;2023-02-12T12:06:05;78615.13;;;-147.06;100.00
54453;BME280;40363;52.270;10.546;2023-02-12T12:08:36;78611.00;;;-147.06;100.00
54453;BME280;40363;52.270;10.546;2023-02-12T12:11:10;78615.13;;;-147.06;100.00
54453;BME280;40363;52.270;10.546;2023-02-12T12:13:42;78619.22;;;-147.06;100.00
54453;BME280;40363;52.270;10.546;2023-02-12T12:16:17;78625.41;;;-147.06;100.00
54453;BME280;40363;52.270;10.546;2023-02-12T12:19:14;78608.94;;;-147.06;100.00
54453;BME280;40363;52.270;10.546;2023-02-12T12:22:03;78606.88;;;-147.06;100.00
54453;BME280;40363;52.270;10.546;2023-02-12T12:24:37;78590.44;;;-147.06;100.00
54453;BME280;40363;52.270;10.546;2023-02-12T12:27:10;78594.56;;;-147.06;100.00
54453;BME280;40363;52.270;10.546;2023-02-12T12:30:02;78611.00;;;-147.06;100.00
54453;BME280;40363;52.270;10.546;2023-02-12T12:32:35;78617.16;;;-147.06;100.00
54453;BME280;40363;52.270;10.546;2023-02-12T12:35:08;78615.13;;;-147.06;100.00
54453;BME280;40363;52.270;10.546;2023-02-12T12:37:39;78594.56;;;-147.06;100.00
54453;BME280;40363;52.270;10.546;2023-02-12T12:40:22;78590.44;;;-147.06;100.00